createdAt,value
2018-01-23T00:00:16.315Z,957.93
2018-01-23T00:01:16.330Z,957.91
2018-01-23T00:02:16.345Z,957.98
2018-01-23T00:03:16.358Z,958.03
2018-01-23T00:04:16.374Z,958.04
2018-01-23T00:05:16.387Z,958.09
2018-01-23T00:06:16.402Z,958.11
2018-01-23T00:07:16.420Z,958.17
2018-01-23T00:08:16.432Z,958.18
2018-01-23T00:09:16.446Z,958.14
2018-01-23T00:10:16.462Z,958.09
2018-01-23T00:11:16.477Z,958.07
2018-01-23T00:12:16.491Z,958.05
2018-01-23T00:13:16.505Z,958.09
2018-01-23T00:14:16.519Z,958.07
2018-01-23T00:15:16.534Z,958.06
2018-01-23T00:16:16.549Z,958.07
2018-01-23T00:17:16.562Z,958.09
2018-01-23T00:18:16.600Z,958.08
2018-01-23T00:19:16.593Z,958.11
2018-01-23T00:20:16.606Z,958.12
2018-01-23T00:21:16.621Z,958.16
2018-01-23T00:22:16.636Z,958.16
2018-01-23T00:23:16.650Z,958.26
2018-01-23T00:24:16.664Z,958.29
2018-01-23T00:25:16.682Z,958.35
2018-01-23T00:26:16.694Z,958.32
2018-01-23T00:27:16.709Z,958.36
2018-01-23T00:28:16.724Z,958.36
2018-01-23T00:29:16.739Z,958.38
2018-01-23T00:30:16.754Z,958.4
2018-01-23T00:31:16.768Z,958.44
2018-01-23T00:32:16.782Z,958.43
2018-01-23T00:33:16.797Z,958.45
2018-01-23T00:34:16.813Z,958.48
2018-01-23T00:35:16.826Z,958.49
2018-01-23T00:36:16.841Z,958.51
2018-01-23T00:37:16.856Z,958.47
2018-01-23T00:38:16.871Z,958.48
2018-01-23T00:39:16.886Z,958.46
2018-01-23T00:40:16.907Z,958.53
2018-01-23T00:41:16.915Z,958.5
2018-01-23T00:42:16.928Z,958.49
2018-01-23T00:43:16.943Z,958.45
2018-01-23T00:44:16.959Z,958.44
2018-01-23T00:45:16.975Z,958.46
2018-01-23T00:46:16.989Z,958.49
2018-01-23T00:47:17.023Z,958.47
2018-01-23T00:48:17.018Z,958.52
2018-01-23T00:49:17.037Z,958.57
2018-01-23T00:50:17.045Z,958.67
2018-01-23T00:51:17.061Z,958.63
2018-01-23T00:52:17.075Z,958.58
2018-01-23T00:53:17.089Z,958.58
2018-01-23T00:54:17.104Z,958.63
2018-01-23T00:55:17.118Z,958.68
2018-01-23T00:56:17.134Z,958.74
2018-01-23T00:57:17.147Z,958.75
2018-01-23T00:58:17.161Z,958.79
2018-01-23T00:59:17.179Z,958.87
2018-01-23T01:00:17.191Z,958.87
2018-01-23T01:01:17.206Z,958.83
2018-01-23T01:02:17.221Z,958.83
2018-01-23T01:03:17.236Z,958.76
2018-01-23T01:04:17.249Z,958.87
2018-01-23T01:05:17.264Z,958.79
2018-01-23T01:06:17.279Z,958.83
2018-01-23T01:07:17.294Z,958.83
2018-01-23T01:08:17.307Z,958.82
2018-01-23T01:09:17.325Z,958.84
2018-01-23T01:10:17.337Z,958.86
2018-01-23T01:11:17.353Z,958.85
2018-01-23T01:12:17.366Z,958.84
2018-01-23T01:13:17.434Z,958.8
2018-01-23T01:14:17.395Z,958.79
2018-01-23T01:15:17.409Z,958.79
2018-01-23T01:16:17.437Z,958.8
2018-01-23T01:17:17.438Z,958.78
2018-01-23T01:18:17.453Z,958.79
2018-01-23T01:19:17.466Z,958.71
2018-01-23T01:20:17.482Z,958.64
2018-01-23T01:21:17.497Z,958.57
2018-01-23T01:22:17.510Z,958.59
2018-01-23T01:23:17.524Z,958.68
2018-01-23T01:24:17.538Z,958.72
2018-01-23T01:25:17.554Z,958.66
2018-01-23T01:26:17.567Z,958.74
2018-01-23T01:27:17.581Z,958.73
2018-01-23T01:28:17.596Z,958.78
2018-01-23T01:29:17.651Z,958.82
2018-01-23T01:30:17.626Z,958.78
2018-01-23T01:31:17.662Z,958.84
2018-01-23T01:32:17.660Z,958.85
2018-01-23T01:33:17.670Z,958.89
2018-01-23T01:34:17.684Z,958.95
2018-01-23T01:35:17.698Z,958.93
2018-01-23T01:36:17.713Z,958.91
2018-01-23T01:37:17.726Z,958.88
2018-01-23T01:38:17.867Z,958.84
2018-01-23T01:39:17.757Z,958.87
2018-01-23T01:40:17.771Z,958.91
2018-01-23T01:41:17.788Z,958.91
2018-01-23T01:42:17.799Z,959.01
2018-01-23T01:43:17.813Z,959.03
2018-01-23T01:44:17.829Z,959.01
2018-01-23T01:45:17.854Z,958.94
2018-01-23T01:46:17.859Z,958.97
2018-01-23T01:47:17.874Z,959.04
2018-01-23T01:48:17.888Z,959.13
2018-01-23T01:49:17.902Z,959.2
2018-01-23T01:50:17.920Z,959.28
2018-01-23T01:51:17.931Z,959.29
2018-01-23T01:52:17.945Z,959.27
2018-01-23T01:53:17.961Z,959.21
2018-01-23T01:54:17.973Z,959.21
2018-01-23T01:55:17.988Z,959.21
2018-01-23T01:56:18.001Z,959.21
2018-01-23T01:57:18.017Z,959.25
2018-01-23T01:58:18.037Z,959.2
2018-01-23T01:59:18.045Z,959.22
2018-01-23T02:00:18.081Z,959.24
2018-01-23T02:01:18.075Z,959.28
2018-01-23T02:02:18.089Z,959.31
2018-01-23T02:03:18.103Z,959.38
2018-01-23T02:04:18.117Z,959.36
2018-01-23T02:05:18.132Z,959.3
2018-01-23T02:06:18.151Z,959.35
2018-01-23T02:07:18.162Z,959.39
2018-01-23T02:08:18.175Z,959.39
2018-01-23T02:09:18.192Z,959.45
2018-01-23T02:10:18.204Z,959.46
2018-01-23T02:11:18.217Z,959.53
2018-01-23T02:12:18.233Z,959.59
2018-01-23T02:13:18.247Z,959.62
2018-01-23T02:14:18.273Z,959.68
2018-01-23T02:15:18.276Z,959.72
2018-01-23T02:16:18.290Z,959.75
2018-01-23T02:17:18.302Z,959.88
2018-01-23T02:18:18.318Z,959.8
2018-01-23T02:19:18.333Z,959.82
2018-01-23T02:20:18.347Z,959.85
2018-01-23T02:21:18.362Z,959.83
2018-01-23T02:22:18.374Z,959.85
2018-01-23T02:23:18.390Z,959.84
2018-01-23T02:24:18.403Z,959.84
2018-01-23T02:25:18.417Z,959.9
2018-01-23T02:26:18.432Z,959.85
2018-01-23T02:27:18.453Z,959.9
2018-01-23T02:28:18.468Z,959.89
2018-01-23T02:29:18.474Z,959.94
2018-01-23T02:30:18.488Z,959.94
2018-01-23T02:31:18.502Z,959.9
2018-01-23T02:32:18.515Z,959.87
2018-01-23T02:33:18.529Z,959.92
2018-01-23T02:34:18.547Z,959.89
2018-01-23T02:35:18.558Z,959.92
2018-01-23T02:36:18.580Z,959.9
2018-01-23T02:37:18.586Z,959.89
2018-01-23T02:38:18.601Z,959.93
2018-01-23T02:39:18.614Z,959.96
2018-01-23T02:40:18.629Z,960
2018-01-23T02:41:18.642Z,959.99
2018-01-23T02:42:18.659Z,959.99
2018-01-23T02:43:18.691Z,960.01
2018-01-23T02:44:18.687Z,959.96
2018-01-23T02:45:18.700Z,959.97
2018-01-23T02:46:18.714Z,959.94
2018-01-23T02:47:18.729Z,959.83
2018-01-23T02:48:18.742Z,959.88
2018-01-23T02:49:18.756Z,959.88
2018-01-23T02:50:18.774Z,959.92
2018-01-23T02:51:18.785Z,959.92
2018-01-23T02:52:18.799Z,959.95
2018-01-23T02:53:18.814Z,959.95
2018-01-23T02:54:18.827Z,959.95
2018-01-23T02:55:18.842Z,959.83
2018-01-23T02:56:18.858Z,959.85
2018-01-23T02:57:18.869Z,959.92
2018-01-23T02:58:18.884Z,959.93
2018-01-23T02:59:18.899Z,959.9
2018-01-23T03:00:18.912Z,959.98
2018-01-23T03:01:18.926Z,959.99
2018-01-23T03:02:18.941Z,960.04
2018-01-23T03:03:18.956Z,960.05
2018-01-23T03:04:18.970Z,960.04
2018-01-23T03:05:18.985Z,960.11
2018-01-23T03:06:18.997Z,960.1
2018-01-23T03:07:19.012Z,960.07
2018-01-23T03:08:19.026Z,960.02
2018-01-23T03:09:19.039Z,960.02
2018-01-23T03:10:19.053Z,960.08
2018-01-23T03:11:19.069Z,960.11
2018-01-23T03:12:19.081Z,960.09
2018-01-23T03:13:19.095Z,960.2
2018-01-23T03:14:19.113Z,960.21
2018-01-23T03:15:19.123Z,960.21
2018-01-23T03:16:19.136Z,960.34
2018-01-23T03:17:19.151Z,960.26
2018-01-23T03:18:19.165Z,960.36
2018-01-23T03:19:19.179Z,960.32
2018-01-23T03:20:19.196Z,960.33
2018-01-23T03:21:19.207Z,960.35
2018-01-23T03:22:19.222Z,960.35
2018-01-23T03:23:19.234Z,960.35
2018-01-23T03:24:19.249Z,960.31
2018-01-23T03:25:19.262Z,960.31
2018-01-23T03:26:19.277Z,960.31
2018-01-23T03:27:19.290Z,960.32
2018-01-23T03:28:19.305Z,960.32
2018-01-23T03:29:19.320Z,960.43
2018-01-23T03:30:19.332Z,960.47
2018-01-23T03:31:19.354Z,960.47
2018-01-23T03:32:19.361Z,960.47
2018-01-23T03:33:19.377Z,960.52
2018-01-23T03:34:19.403Z,960.59
2018-01-23T03:35:19.402Z,960.54
2018-01-23T03:36:19.416Z,960.58
2018-01-23T03:37:19.430Z,960.59
2018-01-23T03:38:19.444Z,960.61
2018-01-23T03:39:19.464Z,960.65
2018-01-23T03:40:19.472Z,960.64
2018-01-23T03:41:19.487Z,960.68
2018-01-23T03:42:19.503Z,960.78
2018-01-23T03:43:19.514Z,960.71
2018-01-23T03:44:19.530Z,960.85
2018-01-23T03:45:19.546Z,960.81
2018-01-23T03:46:19.555Z,960.81
2018-01-23T03:47:19.571Z,960.77
2018-01-23T03:48:19.593Z,960.77
2018-01-23T03:49:19.597Z,960.77
2018-01-23T03:50:19.612Z,960.74
2018-01-23T03:51:19.626Z,960.77
2018-01-23T03:52:19.639Z,960.74
2018-01-23T03:53:19.653Z,960.76
2018-01-23T03:54:19.667Z,960.68
2018-01-23T03:55:19.682Z,960.7
2018-01-23T03:56:19.696Z,960.72
2018-01-23T03:57:19.708Z,960.74
2018-01-23T03:58:19.723Z,960.72
2018-01-23T03:59:19.737Z,960.77
2018-01-23T04:00:19.751Z,960.76
2018-01-23T04:01:19.765Z,960.81
2018-01-23T04:02:19.781Z,960.77
2018-01-23T04:03:19.793Z,960.78
2018-01-23T04:04:19.806Z,960.8
2018-01-23T04:05:19.821Z,960.83
2018-01-23T04:06:19.836Z,960.84
2018-01-23T04:07:19.849Z,960.87
2018-01-23T04:08:19.863Z,960.88
2018-01-23T04:09:19.876Z,960.88
2018-01-23T04:10:19.891Z,960.91
2018-01-23T04:11:19.905Z,960.91
2018-01-23T04:12:19.920Z,960.86
2018-01-23T04:13:19.933Z,960.88
2018-01-23T04:14:19.946Z,960.98
2018-01-23T04:15:19.960Z,960.92
2018-01-23T04:16:19.974Z,960.91
2018-01-23T04:17:19.989Z,960.91
2018-01-23T04:18:20.003Z,960.94
2018-01-23T04:20:20.030Z,960.93
2018-01-23T04:21:20.045Z,960.87
2018-01-23T04:22:20.059Z,960.89
2018-01-23T04:23:20.072Z,960.83
2018-01-23T04:24:20.091Z,960.84
2018-01-23T04:25:20.101Z,960.86
2018-01-23T04:26:20.115Z,960.87
2018-01-23T04:27:20.135Z,960.89
2018-01-23T04:28:20.143Z,960.9
2018-01-23T04:29:20.157Z,960.94
2018-01-23T04:30:20.171Z,960.99
2018-01-23T04:31:20.184Z,961.01
2018-01-23T04:32:20.200Z,961.09
2018-01-23T04:33:20.212Z,961.09
2018-01-23T04:34:20.227Z,961.05
2018-01-23T04:35:20.241Z,961.08
2018-01-23T04:36:20.254Z,961.18
2018-01-23T04:37:20.274Z,961.16
2018-01-23T04:38:20.283Z,961.23
2018-01-23T04:39:20.305Z,961.27
2018-01-23T04:40:20.311Z,961.35
2018-01-23T04:41:20.323Z,961.34
2018-01-23T04:42:20.339Z,961.35
2018-01-23T04:43:20.352Z,961.41
2018-01-23T04:44:20.367Z,961.4
2018-01-23T04:45:20.381Z,961.36
2018-01-23T04:46:20.398Z,961.43
2018-01-23T04:47:20.408Z,961.42
2018-01-23T04:48:20.423Z,961.44
2018-01-23T04:49:20.438Z,961.43
2018-01-23T04:50:20.451Z,961.48
2018-01-23T04:51:20.467Z,961.49
2018-01-23T04:52:20.480Z,961.51
2018-01-23T04:53:20.498Z,961.52
2018-01-23T04:54:20.508Z,961.47
2018-01-23T04:55:20.522Z,961.58
2018-01-23T04:56:20.537Z,961.61
2018-01-23T04:57:20.551Z,961.58
2018-01-23T04:58:20.565Z,961.61
2018-01-23T04:59:20.580Z,961.55
2018-01-23T05:00:20.593Z,961.63
2018-01-23T05:01:20.613Z,961.6
2018-01-23T05:02:20.621Z,961.59
2018-01-23T05:03:20.636Z,961.55
2018-01-23T05:04:20.650Z,961.57
2018-01-23T05:05:20.666Z,961.62
2018-01-23T05:06:20.679Z,961.63
2018-01-23T05:07:20.691Z,961.64
2018-01-23T05:08:20.722Z,961.65
2018-01-23T05:09:20.721Z,961.64
2018-01-23T05:10:20.735Z,961.64
2018-01-23T05:11:20.749Z,961.64
2018-01-23T05:12:20.763Z,961.74
2018-01-23T05:13:20.779Z,961.7
2018-01-23T05:14:20.792Z,961.67
2018-01-23T05:15:20.811Z,961.7
2018-01-23T05:16:20.820Z,961.69
2018-01-23T05:17:20.834Z,961.69
2018-01-23T05:18:20.848Z,961.69
2018-01-23T05:19:20.862Z,961.69
2018-01-23T05:20:20.876Z,961.73
2018-01-23T05:21:20.892Z,961.74
2018-01-23T05:22:20.915Z,961.78
2018-01-23T05:23:20.919Z,961.84
2018-01-23T05:24:20.934Z,961.85
2018-01-23T05:25:20.948Z,961.86
2018-01-23T05:26:20.963Z,961.93
2018-01-23T05:27:20.975Z,961.92
2018-01-23T05:28:20.989Z,962.01
2018-01-23T05:29:21.004Z,961.98
2018-01-23T05:30:21.019Z,962.03
2018-01-23T05:31:21.032Z,962.02
2018-01-23T05:32:21.047Z,962
2018-01-23T05:33:21.066Z,962.07
2018-01-23T05:34:21.075Z,962.12
2018-01-23T05:35:21.090Z,962.14
2018-01-23T05:36:21.103Z,962.17
2018-01-23T05:37:21.117Z,962.19
2018-01-23T05:38:21.132Z,962.18
2018-01-23T05:39:21.146Z,962.23
2018-01-23T05:40:21.161Z,962.23
2018-01-23T05:41:21.174Z,962.25
2018-01-23T05:42:21.190Z,962.26
2018-01-23T05:43:21.206Z,962.3
2018-01-23T05:44:21.223Z,962.28
2018-01-23T05:45:21.235Z,962.28
2018-01-23T05:46:21.245Z,962.27
2018-01-23T05:47:21.259Z,962.34
2018-01-23T05:48:21.274Z,962.34
2018-01-23T05:49:21.286Z,962.42
2018-01-23T05:50:21.302Z,962.45
2018-01-23T05:51:21.333Z,962.47
2018-01-23T05:52:21.331Z,962.47
2018-01-23T05:53:21.345Z,962.46
2018-01-23T05:54:21.360Z,962.46
2018-01-23T05:55:21.374Z,962.5
2018-01-23T05:56:21.388Z,962.52
2018-01-23T05:57:21.402Z,962.5
2018-01-23T05:58:21.419Z,962.55
2018-01-23T05:59:21.431Z,962.57
2018-01-23T06:00:21.445Z,962.54
2018-01-23T06:01:21.459Z,962.58
2018-01-23T06:02:21.474Z,962.62
2018-01-23T06:03:21.488Z,962.62
2018-01-23T06:04:21.500Z,962.61
2018-01-23T06:05:21.515Z,962.61
2018-01-23T06:06:21.530Z,962.58
2018-01-23T06:07:21.549Z,962.57
2018-01-23T06:08:21.557Z,962.61
2018-01-23T06:09:21.572Z,962.6
2018-01-23T06:10:21.587Z,962.57
2018-01-23T06:11:21.600Z,962.6
2018-01-23T06:12:21.615Z,962.64
2018-01-23T06:13:21.629Z,962.67
2018-01-23T06:14:21.645Z,962.7
2018-01-23T06:15:21.657Z,962.73
2018-01-23T06:16:21.673Z,962.81
2018-01-23T06:17:21.685Z,962.77
2018-01-23T06:18:21.701Z,962.77
2018-01-23T06:19:21.713Z,962.79
2018-01-23T06:20:21.753Z,962.86
2018-01-23T06:21:21.743Z,962.78
2018-01-23T06:22:21.757Z,962.8
2018-01-23T06:23:21.772Z,962.82
2018-01-23T06:24:21.785Z,962.75
2018-01-23T06:25:21.802Z,962.77
2018-01-23T06:26:21.813Z,962.82
2018-01-23T06:27:21.834Z,962.8
2018-01-23T06:28:21.844Z,962.83
2018-01-23T06:29:21.863Z,962.83
2018-01-23T06:30:21.872Z,962.82
2018-01-23T06:31:21.886Z,962.93
2018-01-23T06:32:21.920Z,962.89
2018-01-23T06:33:21.917Z,962.92
2018-01-23T06:34:21.929Z,962.94
2018-01-23T06:35:21.944Z,962.91
2018-01-23T06:36:21.958Z,962.94
2018-01-23T06:37:21.972Z,962.98
2018-01-23T06:38:21.986Z,963
2018-01-23T06:39:22.001Z,963.05
2018-01-23T06:40:22.014Z,963.05
2018-01-23T06:41:22.029Z,963.06
2018-01-23T06:42:22.045Z,963.11
2018-01-23T06:43:22.059Z,963.1
2018-01-23T06:44:22.073Z,963.09
2018-01-23T06:45:22.086Z,963.06
2018-01-23T06:46:22.100Z,963.04
2018-01-23T06:47:22.116Z,963.12
2018-01-23T06:48:22.129Z,963.07
2018-01-23T06:49:22.144Z,963.08
2018-01-23T06:50:22.159Z,963.11
2018-01-23T06:51:22.173Z,963.17
2018-01-23T06:52:22.187Z,963.17
2018-01-23T06:53:22.201Z,963.14
2018-01-23T06:54:22.216Z,963.18
2018-01-23T06:55:22.229Z,963.17
2018-01-23T06:56:22.252Z,963.2
2018-01-23T06:57:22.259Z,963.18
2018-01-23T06:58:22.274Z,963.2
2018-01-23T06:59:22.287Z,963.28
2018-01-23T07:00:22.307Z,963.28
2018-01-23T07:01:22.317Z,963.24
2018-01-23T07:02:22.330Z,963.3
2018-01-23T07:03:22.345Z,963.33
2018-01-23T07:04:22.360Z,963.32
2018-01-23T07:05:22.374Z,963.33
2018-01-23T07:06:22.386Z,963.37
2018-01-23T07:07:22.403Z,963.34
2018-01-23T07:08:22.487Z,963.4
2018-01-23T07:09:22.431Z,963.4
2018-01-23T07:10:22.447Z,963.44
2018-01-23T07:11:22.463Z,963.42
2018-01-23T07:12:22.478Z,963.46
2018-01-23T07:13:22.490Z,963.48
2018-01-23T07:14:22.506Z,963.51
2018-01-23T07:15:22.519Z,963.57
2018-01-23T07:16:22.534Z,963.6
2018-01-23T07:17:22.547Z,963.61
2018-01-23T07:18:22.561Z,963.61
2018-01-23T07:19:22.578Z,963.68
2018-01-23T07:20:22.593Z,963.73
2018-01-23T07:21:22.608Z,963.75
2018-01-23T07:22:22.625Z,963.76
2018-01-23T07:23:22.636Z,963.81
2018-01-23T07:24:22.666Z,963.77
2018-01-23T07:25:22.671Z,963.76
2018-01-23T07:27:22.695Z,963.83
2018-01-23T07:28:22.710Z,963.83
2018-01-23T07:29:22.726Z,963.89
2018-01-23T07:30:22.739Z,963.92
2018-01-23T07:31:22.754Z,963.99
2018-01-23T07:32:22.766Z,963.98
2018-01-23T07:33:22.782Z,964.03
2018-01-23T07:34:22.797Z,964.06
2018-01-23T07:35:22.814Z,964.06
2018-01-23T07:36:22.826Z,964.08
2018-01-23T07:37:22.841Z,964.16
2018-01-23T07:38:22.856Z,964.1
2018-01-23T07:39:22.870Z,964.18
2018-01-23T07:40:22.885Z,964.15
2018-01-23T07:41:22.900Z,964.17
2018-01-23T07:42:22.914Z,964.14
2018-01-23T07:43:22.929Z,964.13
2018-01-23T07:44:22.942Z,964.12
2018-01-23T07:45:22.958Z,964.13
2018-01-23T07:46:22.972Z,964.17
2018-01-23T07:47:23.007Z,964.17
2018-01-23T07:48:23.002Z,964.19
2018-01-23T07:49:23.017Z,964.2
2018-01-23T07:50:23.030Z,964.2
2018-01-23T07:51:23.045Z,964.23
2018-01-23T07:52:23.060Z,964.29
2018-01-23T07:53:23.074Z,964.29
2018-01-23T07:54:23.090Z,964.33
2018-01-23T07:55:23.104Z,964.31
2018-01-23T07:56:23.122Z,964.36
2018-01-23T07:57:23.135Z,964.36
2018-01-23T07:58:23.167Z,964.38
2018-01-23T07:59:23.164Z,964.4
2018-01-23T08:00:23.183Z,964.35
2018-01-23T08:01:23.193Z,964.37
2018-01-23T08:02:23.210Z,964.37
2018-01-23T08:03:23.227Z,964.4
2018-01-23T08:04:23.238Z,964.39
2018-01-23T08:05:23.253Z,964.43
2018-01-23T08:06:23.310Z,964.4
2018-01-23T08:07:23.283Z,964.44
2018-01-23T08:08:23.297Z,964.44
2018-01-23T08:09:23.314Z,964.49
2018-01-23T08:10:23.331Z,964.48
2018-01-23T08:11:23.344Z,964.49
2018-01-23T08:12:23.358Z,964.49
2018-01-23T08:13:23.374Z,964.53
2018-01-23T08:14:23.387Z,964.51
2018-01-23T08:15:23.403Z,964.55
2018-01-23T08:16:23.429Z,964.51
2018-01-23T08:17:23.433Z,964.6
2018-01-23T08:18:23.447Z,964.59
2018-01-23T08:19:23.462Z,964.62
2018-01-23T08:20:23.476Z,964.59
2018-01-23T08:21:23.491Z,964.65
2018-01-23T08:22:23.506Z,964.69
2018-01-23T08:23:23.521Z,964.74
2018-01-23T08:24:23.535Z,964.72
2018-01-23T08:25:23.550Z,964.73
2018-01-23T08:26:23.566Z,964.77
2018-01-23T08:27:23.582Z,964.81
2018-01-23T08:28:23.597Z,964.82
2018-01-23T08:29:23.611Z,964.84
2018-01-23T08:30:23.624Z,964.91
2018-01-23T08:31:23.650Z,964.94
2018-01-23T08:32:23.658Z,964.88
2018-01-23T08:33:23.671Z,964.89
2018-01-23T08:34:23.685Z,964.95
2018-01-23T08:35:23.700Z,964.9
2018-01-23T08:36:23.715Z,964.89
2018-01-23T08:37:23.729Z,964.96
2018-01-23T08:38:23.744Z,964.93
2018-01-23T08:39:23.757Z,964.99
2018-01-23T08:40:23.773Z,965.01
2018-01-23T08:41:23.788Z,965
2018-01-23T08:42:23.804Z,965.01
2018-01-23T08:43:23.819Z,965.07
2018-01-23T08:44:23.874Z,965.03
2018-01-23T08:45:23.855Z,965.04
2018-01-23T08:46:23.868Z,965.1
2018-01-23T08:47:23.881Z,965.03
2018-01-23T08:48:23.892Z,965.06
2018-01-23T08:49:23.906Z,965.07
2018-01-23T08:50:23.936Z,965.04
2018-01-23T08:51:24.014Z,965.09
2018-01-23T08:52:23.951Z,965.15
2018-01-23T08:53:23.967Z,965.11
2018-01-23T08:54:23.981Z,965.14
2018-01-23T08:55:23.996Z,965.13
2018-01-23T08:56:24.011Z,965.11
2018-01-23T08:57:24.028Z,965.16
2018-01-23T08:58:24.042Z,965.17
2018-01-23T08:59:24.055Z,965.21
2018-01-23T09:00:24.071Z,965.22
2018-01-23T09:01:24.087Z,965.25
2018-01-23T09:02:24.103Z,965.28
2018-01-23T09:03:24.115Z,965.31
2018-01-23T09:04:24.134Z,965.26
2018-01-23T09:05:24.146Z,965.3
2018-01-23T09:06:24.163Z,965.28
2018-01-23T09:07:24.195Z,965.34
2018-01-23T09:08:24.192Z,965.36
2018-01-23T09:09:24.208Z,965.34
2018-01-23T09:10:24.221Z,965.29
2018-01-23T09:11:24.237Z,965.37
2018-01-23T09:12:24.253Z,965.38
2018-01-23T09:13:24.268Z,965.36
2018-01-23T09:14:24.284Z,965.37
2018-01-23T09:15:24.298Z,965.37
2018-01-23T09:16:24.312Z,965.45
2018-01-23T09:17:24.328Z,965.4
2018-01-23T09:18:24.342Z,965.38
2018-01-23T09:19:24.358Z,965.42
2018-01-23T09:20:24.373Z,965.44
2018-01-23T09:21:24.388Z,965.49
2018-01-23T09:22:24.421Z,965.52
2018-01-23T09:23:24.418Z,965.51
2018-01-23T09:24:24.432Z,965.54
2018-01-23T09:25:24.447Z,965.51
2018-01-23T09:26:24.462Z,965.55
2018-01-23T09:27:24.477Z,965.55
2018-01-23T09:28:24.494Z,965.56
2018-01-23T09:29:24.507Z,965.65
2018-01-23T09:30:24.523Z,965.67
2018-01-23T09:31:24.539Z,965.65
2018-01-23T09:32:24.560Z,965.7
2018-01-23T09:33:24.568Z,965.72
2018-01-23T09:34:24.583Z,965.69
2018-01-23T09:35:24.599Z,965.75
2018-01-23T09:36:24.613Z,965.74
2018-01-23T09:37:24.631Z,965.78
2018-01-23T09:38:24.642Z,965.82
2018-01-23T09:39:24.658Z,965.78
2018-01-23T09:40:24.673Z,965.8
2018-01-23T09:41:24.688Z,965.82
2018-01-23T09:42:24.710Z,965.79
2018-01-23T09:43:24.718Z,965.82
2018-01-23T09:44:24.734Z,965.82
2018-01-23T09:45:24.749Z,965.83
2018-01-23T09:46:24.765Z,965.8
2018-01-23T09:47:24.780Z,965.82
2018-01-23T09:48:24.795Z,965.83
2018-01-23T09:49:24.810Z,965.83
2018-01-23T09:50:24.826Z,965.82
2018-01-23T09:51:24.842Z,965.78
2018-01-23T09:52:24.857Z,965.82
2018-01-23T09:53:24.871Z,965.81
2018-01-23T09:54:24.885Z,965.74
2018-01-23T09:55:24.902Z,965.82
2018-01-23T09:56:24.917Z,965.82
2018-01-23T09:57:24.933Z,965.82
2018-01-23T09:58:24.987Z,965.85
2018-01-23T09:59:24.961Z,965.85
2018-01-23T10:00:24.978Z,965.89
2018-01-23T10:01:24.992Z,965.91
2018-01-23T10:02:25.007Z,965.92
2018-01-23T10:03:25.027Z,965.94
2018-01-23T10:04:25.038Z,965.91
2018-01-23T10:05:25.071Z,965.93
2018-01-23T10:06:25.080Z,965.96
2018-01-23T10:07:25.085Z,965.92
2018-01-23T10:08:25.100Z,965.95
2018-01-23T10:09:25.114Z,965.95
2018-01-23T10:10:25.130Z,965.94
2018-01-23T10:11:25.146Z,965.93
2018-01-23T10:12:25.159Z,965.91
2018-01-23T10:13:25.192Z,965.92
2018-01-23T10:14:25.193Z,965.86
2018-01-23T10:15:25.208Z,965.83
2018-01-23T10:16:25.222Z,965.87
2018-01-23T10:17:25.238Z,965.88
2018-01-23T10:18:25.256Z,965.83
2018-01-23T10:19:25.269Z,965.85
2018-01-23T10:20:25.285Z,965.8
2018-01-23T10:21:25.300Z,965.82
2018-01-23T10:22:25.316Z,965.82
2018-01-23T10:23:25.333Z,965.82
2018-01-23T10:24:25.346Z,965.84
2018-01-23T10:25:25.365Z,965.82
2018-01-23T10:26:25.378Z,965.88
2018-01-23T10:27:25.395Z,965.87
2018-01-23T10:28:25.408Z,965.93
2018-01-23T10:29:25.425Z,965.9
2018-01-23T10:30:25.440Z,965.94
2018-01-23T10:31:25.454Z,965.91
2018-01-23T10:32:25.471Z,965.93
2018-01-23T10:33:25.486Z,965.93
2018-01-23T10:34:25.501Z,966.03
2018-01-23T10:35:25.518Z,966.03
2018-01-23T10:36:25.533Z,966.04
2018-01-23T10:37:25.548Z,966.09
2018-01-23T10:38:25.569Z,966.08
2018-01-23T10:39:25.579Z,966.08
2018-01-23T10:40:25.596Z,966.1
2018-01-23T10:41:25.614Z,966.1
2018-01-23T10:42:25.628Z,966.14
2018-01-23T10:43:25.641Z,966.12
2018-01-23T10:44:25.657Z,966.11
2018-01-23T10:45:25.671Z,966.16
2018-01-23T10:46:25.686Z,966.06
2018-01-23T10:47:25.701Z,966.07
2018-01-23T10:48:25.717Z,966.1
2018-01-23T10:49:25.735Z,966.08
2018-01-23T10:50:25.747Z,966.07
2018-01-23T10:51:25.766Z,966.07
2018-01-23T10:52:25.779Z,966.11
2018-01-23T10:53:25.794Z,966.06
2018-01-23T10:54:25.810Z,966.08
2018-01-23T10:55:25.824Z,966.11
2018-01-23T10:56:25.843Z,966.09
2018-01-23T10:57:25.855Z,966.07
2018-01-23T10:58:25.869Z,966.12
2018-01-23T10:59:25.885Z,966.09
2018-01-23T11:00:25.901Z,966.05
2018-01-23T11:01:25.917Z,966.09
2018-01-23T11:02:25.933Z,966.1
2018-01-23T11:03:25.947Z,966.07
2018-01-23T11:04:25.964Z,966.1
2018-01-23T11:05:25.978Z,966.05
2018-01-23T11:06:26.004Z,966.09
2018-01-23T11:07:26.014Z,966.06
2018-01-23T11:08:26.024Z,966.07
2018-01-23T11:09:26.041Z,966.05
2018-01-23T11:10:26.056Z,966.04
2018-01-23T11:11:26.085Z,966.08
2018-01-23T11:12:26.087Z,966.02
2018-01-23T11:13:26.107Z,966.04
2018-01-23T11:14:26.119Z,966.07
2018-01-23T11:15:26.135Z,966.05
2018-01-23T11:16:26.151Z,966.06
2018-01-23T11:17:26.167Z,966.04
2018-01-23T11:18:26.180Z,966.04
2018-01-23T11:19:26.200Z,966.03
2018-01-23T11:20:26.215Z,966.03
2018-01-23T11:21:26.228Z,966.01
2018-01-23T11:22:26.243Z,966.01
2018-01-23T11:23:26.258Z,966.01
2018-01-23T11:24:26.276Z,966
2018-01-23T11:25:26.289Z,965.98
2018-01-23T11:26:26.313Z,965.92
2018-01-23T11:27:26.321Z,965.91
2018-01-23T11:28:26.337Z,965.89
2018-01-23T11:29:26.351Z,965.88
2018-01-23T11:30:26.367Z,965.94
2018-01-23T11:31:26.385Z,965.94
2018-01-23T11:32:26.400Z,965.92
2018-01-23T11:33:26.413Z,965.94
2018-01-23T11:34:26.430Z,965.97
2018-01-23T11:35:26.445Z,965.95
2018-01-23T11:36:26.460Z,966.01
2018-01-23T11:37:26.477Z,965.98
2018-01-23T11:38:26.492Z,965.96
2018-01-23T11:39:26.508Z,966
2018-01-23T11:40:26.524Z,965.9
2018-01-23T11:41:26.540Z,965.9
2018-01-23T11:42:26.557Z,965.89
2018-01-23T11:43:26.572Z,965.86
2018-01-23T11:44:26.586Z,965.88
2018-01-23T11:45:26.607Z,965.83
2018-01-23T11:46:26.630Z,965.92
2018-01-23T11:47:26.634Z,965.91
2018-01-23T11:48:26.665Z,965.86
2018-01-23T11:49:26.665Z,965.85
2018-01-23T11:50:26.682Z,965.86
2018-01-23T11:51:26.697Z,965.88
2018-01-23T11:52:26.713Z,965.89
2018-01-23T11:53:26.729Z,965.86
2018-01-23T11:54:26.743Z,965.87
2018-01-23T11:55:26.759Z,965.88
2018-01-23T11:56:26.776Z,965.93
2018-01-23T11:57:26.791Z,965.93
2018-01-23T11:58:26.807Z,965.92
2018-01-23T11:59:26.824Z,965.9
2018-01-23T12:00:26.840Z,965.94
2018-01-23T12:01:26.855Z,965.9
2018-01-23T12:02:26.879Z,965.86
2018-01-23T12:03:26.887Z,965.9
2018-01-23T12:04:26.903Z,965.88
2018-01-23T12:05:26.920Z,965.91
2018-01-23T12:06:26.935Z,965.85
2018-01-23T12:07:26.952Z,965.89
2018-01-23T12:08:26.968Z,965.88
2018-01-23T12:09:26.982Z,965.83
2018-01-23T12:10:27.019Z,965.86
2018-01-23T12:11:27.015Z,965.79
2018-01-23T12:12:27.032Z,965.82
2018-01-23T12:13:27.047Z,965.81
2018-01-23T12:14:27.063Z,965.76
2018-01-23T12:15:27.080Z,965.76
2018-01-23T12:16:27.097Z,965.75
2018-01-23T12:17:27.111Z,965.74
2018-01-23T12:18:27.127Z,965.78
2018-01-23T12:19:27.151Z,965.74
2018-01-23T12:20:27.159Z,965.76
2018-01-23T12:21:27.175Z,965.69
2018-01-23T12:22:27.192Z,965.68
2018-01-23T12:23:27.208Z,965.69
2018-01-23T12:24:27.225Z,965.71
2018-01-23T12:25:27.240Z,965.73
2018-01-23T12:26:27.256Z,965.72
2018-01-23T12:27:27.273Z,965.71
2018-01-23T12:28:27.289Z,965.7
2018-01-23T12:29:27.357Z,965.74
2018-01-23T12:30:27.321Z,965.72
2018-01-23T12:31:27.336Z,965.72
2018-01-23T12:32:27.367Z,965.71
2018-01-23T12:33:27.369Z,965.73